createdAt,value
2019-06-10T00:04:13.460Z,51.99
2019-06-10T00:09:31.143Z,51.94
2019-06-10T00:14:43.657Z,52.07
2019-06-10T00:19:57.141Z,52.40
2019-06-10T00:25:12.001Z,52.41
2019-06-10T00:30:31.358Z,52.27
2019-06-10T00:35:42.020Z,52.40
2019-06-10T00:41:16.617Z,52.76
2019-06-10T00:46:26.561Z,52.76
2019-06-10T00:51:41.442Z,52.52
2019-06-10T00:56:55.600Z,52.55
2019-06-10T01:02:06.599Z,52.45
2019-06-10T01:07:15.836Z,51.97
2019-06-10T01:12:31.666Z,51.90
2019-06-10T01:17:48.167Z,52.06
2019-06-10T01:22:58.097Z,52.05
2019-06-10T01:28:22.318Z,52.01
2019-06-10T01:33:41.100Z,51.62
2019-06-10T01:38:55.684Z,51.87
2019-06-10T01:44:14.335Z,51.90
2019-06-10T01:49:32.189Z,51.81
2019-06-10T01:54:45.355Z,51.87
2019-06-10T01:59:51.581Z,51.99
2019-06-10T02:10:32.036Z,51.83
2019-06-10T02:15:51.486Z,51.82
2019-06-10T02:21:01.788Z,51.91
2019-06-10T02:26:13.595Z,52.27
2019-06-10T02:31:30.099Z,52.18
2019-06-10T02:36:36.618Z,52.26
2019-06-10T02:41:53.564Z,52.61
2019-06-10T02:47:14.338Z,51.56
2019-06-10T02:52:46.130Z,52.01
2019-06-10T02:58:06.482Z,52.17
2019-06-10T03:03:35.303Z,52.25
2019-06-10T03:08:37.621Z,52.45
2019-06-10T03:13:53.170Z,52.92
2019-06-10T03:19:39.249Z,53.13
2019-06-10T03:24:42.149Z,53.19
2019-06-10T03:29:57.454Z,53.35
2019-06-10T03:35:13.182Z,54.00
2019-06-10T03:40:46.369Z,54.19
2019-06-10T03:46:02.996Z,54.30
2019-06-10T03:51:14.256Z,54.17
2019-06-10T03:56:32.067Z,53.89
2019-06-10T04:01:52.887Z,53.89
2019-06-10T04:07:06.668Z,53.67
2019-06-10T04:12:17.469Z,54.40
2019-06-10T04:17:28.753Z,54.19
2019-06-10T04:22:44.340Z,54.10
2019-06-10T04:28:03.281Z,53.74
2019-06-10T04:33:18.355Z,53.51
2019-06-10T04:38:32.821Z,52.91
2019-06-10T04:43:47.638Z,52.76
2019-06-10T04:49:03.404Z,52.38
2019-06-10T04:54:23.422Z,52.09
2019-06-10T04:59:35.039Z,51.50
2019-06-10T05:04:43.913Z,51.10
2019-06-10T05:10:03.424Z,51.32
2019-06-10T05:15:19.798Z,51.01
2019-06-10T05:20:50.790Z,51.34
2019-06-10T05:25:56.205Z,51.18
2019-06-10T05:31:07.148Z,51.30
2019-06-10T05:36:28.614Z,50.56
2019-06-10T05:42:00.369Z,51.17
2019-06-10T05:47:16.199Z,50.68
2019-06-10T05:52:33.814Z,50.50
2019-06-10T05:58:14.673Z,50.64
2019-06-10T06:03:26.029Z,50.72
2019-06-10T06:08:37.689Z,49.86
2019-06-10T06:13:52.454Z,50.09
2019-06-10T06:19:07.723Z,49.51
2019-06-10T06:24:22.516Z,49.64
2019-06-10T06:30:06.965Z,50.15
2019-06-10T06:35:16.714Z,50.57
2019-06-10T06:40:53.746Z,50.75
2019-06-10T06:46:09.556Z,50.08
2019-06-10T06:51:33.690Z,50.40
2019-06-10T06:56:38.879Z,49.39
2019-06-10T07:01:52.557Z,49.26
2019-06-10T07:07:13.086Z,48.97
2019-06-10T07:12:25.146Z,48.34
2019-06-10T07:17:37.924Z,47.06
2019-06-10T07:23:09.899Z,47.11
2019-06-10T07:28:22.901Z,47.23
2019-06-10T07:33:40.906Z,46.44
2019-06-10T07:38:53.979Z,46.41
2019-06-10T07:44:06.819Z,46.53
2019-06-10T07:49:44.287Z,45.23
2019-06-10T07:55:05.352Z,45.36
2019-06-10T08:00:22.732Z,45.47
2019-06-10T08:05:38.346Z,45.35
2019-06-10T08:10:52.801Z,45.09
2019-06-10T08:16:03.848Z,44.58
2019-06-10T08:21:18.619Z,44.00
2019-06-10T08:26:27.374Z,44.81
2019-06-10T08:31:44.082Z,43.93
2019-06-10T08:36:54.491Z,43.79
2019-06-10T08:42:03.512Z,43.39
2019-06-10T08:47:17.568Z,43.48
2019-06-10T08:52:44.262Z,43.45
2019-06-10T08:57:48.845Z,43.04
2019-06-10T09:02:58.857Z,42.17
2019-06-10T09:08:13.036Z,41.74
2019-06-10T09:13:26.665Z,42.57
2019-06-10T09:18:34.838Z,41.75
2019-06-10T09:23:50.026Z,42.19
2019-06-10T09:28:56.703Z,41.89
2019-06-10T09:34:13.296Z,40.79
2019-06-10T09:39:29.475Z,41.14
2019-06-10T09:44:45.882Z,40.63
2019-06-10T09:49:58.681Z,40.58
2019-06-10T09:55:14.982Z,40.64
2019-06-10T10:00:47.540Z,40.67
2019-06-10T10:06:11.679Z,40.13
2019-06-10T10:11:12.304Z,39.29
2019-06-10T10:17:23.181Z,39.29
2019-06-10T10:22:44.067Z,39.87
2019-06-10T10:27:57.234Z,39.74
2019-06-10T10:33:04.194Z,37.51
2019-06-10T10:38:19.211Z,37.81
2019-06-10T10:43:33.969Z,37.52
2019-06-10T10:48:47.081Z,36.86
2019-06-10T10:54:17.731Z,35.84
2019-06-10T10:59:08.806Z,35.69
2019-06-10T11:04:18.985Z,34.37
2019-06-10T11:09:33.316Z,34.29
2019-06-10T11:14:44.887Z,34.31
2019-06-10T11:19:54.367Z,35.42
2019-06-10T11:25:05.798Z,35.43
2019-06-10T11:30:21.918Z,35.83
2019-06-10T11:35:37.219Z,35.79
2019-06-10T11:40:58.479Z,35.18
2019-06-10T11:46:07.794Z,35.47
2019-06-10T11:51:23.423Z,35.16
2019-06-10T11:56:36.656Z,35.36
2019-06-10T12:01:46.840Z,35.02
2019-06-10T12:07:02.705Z,35.00
2019-06-10T12:12:13.605Z,34.33
2019-06-10T12:17:41.980Z,34.27
2019-06-10T12:22:43.999Z,34.20
2019-06-10T12:28:04.510Z,33.97
2019-06-10T12:33:20.733Z,33.79
2019-06-10T12:38:25.056Z,33.34
2019-06-10T12:43:35.097Z,33.49
2019-06-10T12:48:45.508Z,33.10
2019-06-10T12:54:04.766Z,34.51
2019-06-10T12:59:16.896Z,33.34
2019-06-10T13:04:31.243Z,33.20
2019-06-10T13:09:45.440Z,34.58
2019-06-10T13:14:58.370Z,33.68
2019-06-10T13:20:13.584Z,32.68
2019-06-10T13:25:22.147Z,33.62
2019-06-10T13:30:42.826Z,31.91
2019-06-10T13:35:49.964Z,32.26
2019-06-10T13:41:05.937Z,32.24
2019-06-10T13:46:24.289Z,31.36
2019-06-10T13:51:35.382Z,31.26
2019-06-10T13:56:47.425Z,30.55
2019-06-10T14:02:06.480Z,30.23
2019-06-10T14:07:19.967Z,30.74
2019-06-10T14:12:32.448Z,31.00
2019-06-10T14:17:52.739Z,30.64
2019-06-10T14:23:04.020Z,30.74
2019-06-10T14:28:35.849Z,30.91
2019-06-10T14:33:33.144Z,31.88
2019-06-10T14:38:49.291Z,32.01
2019-06-10T14:43:58.836Z,31.99
2019-06-10T14:49:06.795Z,32.66
2019-06-10T14:54:18.330Z,32.76
2019-06-10T14:59:28.843Z,32.42
2019-06-10T15:04:38.538Z,32.92
2019-06-10T15:09:47.896Z,33.53
2019-06-10T15:14:58.519Z,33.72
2019-06-10T15:20:07.598Z,33.95
2019-06-10T15:25:17.164Z,33.97
2019-06-10T15:30:34.297Z,33.64
2019-06-10T15:35:42.752Z,33.51
2019-06-10T15:40:49.491Z,33.18
2019-06-10T15:46:03.369Z,32.96
2019-06-10T15:51:15.353Z,32.93
2019-06-10T15:56:37.272Z,33.02
2019-06-10T16:01:37.252Z,33.00
2019-06-10T16:06:46.796Z,32.80
2019-06-10T16:11:55.672Z,32.40
2019-06-10T16:17:07.331Z,32.35
2019-06-10T16:22:15.816Z,32.48
2019-06-10T16:27:43.545Z,32.79
2019-06-10T16:32:37.116Z,32.82
2019-06-10T16:37:54.534Z,33.18
2019-06-10T16:43:03.934Z,32.88
2019-06-10T16:48:14.339Z,33.72
2019-06-10T16:53:30.539Z,34.96
2019-06-10T16:58:34.219Z,35.32
2019-06-10T17:03:46.624Z,35.88
2019-06-10T17:08:53.897Z,36.01
2019-06-10T17:14:03.177Z,36.33
2019-06-10T17:19:15.839Z,37.18
2019-06-10T17:24:25.521Z,38.04
2019-06-10T17:29:33.742Z,38.43
2019-06-10T17:34:42.355Z,38.81
2019-06-10T17:39:53.030Z,39.40
2019-06-10T17:45:27.179Z,39.96
2019-06-10T17:50:34.133Z,40.33
2019-06-10T17:55:49.507Z,40.42
2019-06-10T18:01:02.136Z,40.75
2019-06-10T18:06:36.099Z,40.99
2019-06-10T18:11:45.606Z,41.27
2019-06-10T18:16:57.931Z,41.52
2019-06-10T18:22:04.997Z,41.61
2019-06-10T18:27:14.754Z,41.63
2019-06-10T18:32:23.746Z,41.68
2019-06-10T18:37:34.472Z,42.06
2019-06-10T18:42:42.106Z,41.52
2019-06-10T18:47:52.973Z,42.44
2019-06-10T18:53:04.163Z,43.01
2019-06-10T18:58:12.871Z,43.65
2019-06-10T19:03:19.492Z,44.25
2019-06-10T19:08:33.695Z,44.59
2019-06-10T19:13:43.592Z,45.33
2019-06-10T19:18:58.958Z,45.63
2019-06-10T19:24:12.800Z,45.98
2019-06-10T19:29:30.811Z,46.09
2019-06-10T19:34:31.280Z,47.29
2019-06-10T19:39:50.053Z,47.29
2019-06-10T19:44:53.955Z,47.78
2019-06-10T19:50:03.802Z,48.03
2019-06-10T19:55:17.116Z,47.64
2019-06-10T20:00:26.248Z,47.53
2019-06-10T20:05:38.060Z,47.68
2019-06-10T20:10:53.091Z,47.85
2019-06-10T20:16:05.637Z,48.11
2019-06-10T20:21:18.371Z,48.68
2019-06-10T20:26:27.763Z,49.73
2019-06-10T20:31:33.610Z,50.20
2019-06-10T20:36:43.456Z,50.31
2019-06-10T20:41:55.331Z,50.61
2019-06-10T20:47:00.970Z,50.99
2019-06-10T20:52:12.305Z,51.69
2019-06-10T20:57:19.720Z,51.70
2019-06-10T21:02:32.831Z,51.66
2019-06-10T21:07:44.197Z,51.16
2019-06-10T21:12:56.614Z,50.86
2019-06-10T21:18:05.690Z,50.14
2019-06-10T21:23:18.554Z,50.38
2019-06-10T21:28:32.655Z,50.17
2019-06-10T21:33:45.889Z,49.86
2019-06-10T21:38:58.951Z,50.37
2019-06-10T21:44:07.137Z,49.89
2019-06-10T21:49:16.666Z,50.15
2019-06-10T21:54:24.345Z,49.94
2019-06-10T21:59:33.699Z,50.62
2019-06-10T22:04:45.179Z,51.52
2019-06-10T22:09:56.241Z,51.45
2019-06-10T22:15:02.146Z,51.45
2019-06-10T22:20:15.751Z,50.82
2019-06-10T22:25:25.738Z,50.52
2019-06-10T22:30:33.254Z,50.41
2019-06-10T22:35:42.527Z,50.83
2019-06-10T22:40:55.046Z,50.50
2019-06-10T22:46:04.068Z,50.38
2019-06-10T22:51:15.288Z,50.24
2019-06-10T22:56:22.105Z,50.13
2019-06-10T23:01:35.049Z,50.15
2019-06-10T23:06:41.766Z,50.34
2019-06-10T23:11:51.156Z,50.37
2019-06-10T23:17:03.017Z,50.42
2019-06-10T23:22:16.640Z,50.54
2019-06-10T23:27:27.331Z,50.76
2019-06-10T23:32:33.531Z,50.81
2019-06-10T23:37:42.671Z,50.76
2019-06-10T23:42:53.258Z,50.88
2019-06-10T23:48:05.162Z,50.78
2019-06-10T23:53:15.244Z,50.88
2019-06-10T23:58:25.142Z,50.64
